アテネ の空港の天気 - METARとTAF

アテネ国際空港 ( LGAV / ATH ) - ギリシャ アテネ
飛行場実況気象(Metar)
観測時間09/25 03:50 EEST (09/25 00:50 UTC)
風向・風速西北西 2m/s
視程10km以上
天気現象
なし
気温12℃
湿度77%
気圧1018hPa
METARLGAV 250050Z 30004KT CAVOK 12/08 Q1018 NOSIG
過去の天気等 Google飛行場航空写真 Wunderground天気予報

過去48時間のMETAR

飛行場予報(TAF)
発表時間: 9/25 02:00 EEST (9/24 23:00 UTC)
予報対象時間: 25日3時 EEST ~ 26日3時 EEST
風向・風速西 6m/s
視程10km以上
少しの雲 雲底高度 760m
25日10時 EEST ~ 25日12時 EEST に徐々に
風向・風速北北東 5m/s
TAF LGAV 242300Z 2500/2524 26012KT 9999 FEW025
BECMG 2507/2509 03010KT